createdAt,value
2022-11-14T00:00:40.975Z,21.67
2022-11-14T00:03:45.218Z,18.57
2022-11-14T00:06:49.667Z,19.10
2022-11-14T00:09:54.065Z,18.97
2022-11-14T00:12:58.712Z,19.37
2022-11-14T00:16:03.311Z,17.73
2022-11-14T00:19:07.627Z,21.60
2022-11-14T00:22:11.899Z,17.87
2022-11-14T00:25:16.347Z,19.97
2022-11-14T00:28:20.537Z,18.43
2022-11-14T00:31:24.860Z,18.73
2022-11-14T00:34:29.073Z,18.17
2022-11-14T00:37:33.399Z,18.90
2022-11-14T00:40:37.802Z,15.77
2022-11-14T00:43:42.383Z,19.93
2022-11-14T00:46:46.787Z,17.73
2022-11-14T00:49:51.218Z,17.53
2022-11-14T00:52:55.382Z,17.73
2022-11-14T00:55:59.807Z,18.87
2022-11-14T00:59:04.162Z,17.30
2022-11-14T01:02:08.503Z,14.30
2022-11-14T01:05:12.795Z,17.97
2022-11-14T01:08:18.385Z,16.83
2022-11-14T01:11:23.362Z,17.77
2022-11-14T01:14:27.470Z,17.13
2022-11-14T01:17:32.498Z,15.80
2022-11-14T01:20:42.075Z,16.83
2022-11-14T01:23:46.626Z,15.67
2022-11-14T01:26:51.188Z,15.00
2022-11-14T01:29:55.451Z,17.30
2022-11-14T01:32:59.944Z,14.83
2022-11-14T01:36:05.250Z,16.23
2022-11-14T01:39:09.719Z,16.57
2022-11-14T01:42:14.132Z,17.13
2022-11-14T01:45:52.515Z,14.67
2022-11-14T01:49:24.344Z,16.63
2022-11-14T01:52:33.552Z,16.90
2022-11-14T01:55:37.679Z,12.40
2022-11-14T01:58:46.776Z,18.13
2022-11-14T02:01:53.617Z,14.47
2022-11-14T02:05:02.900Z,14.23
2022-11-14T02:08:11.109Z,17.17
2022-11-14T02:11:15.361Z,16.77
2022-11-14T02:14:19.928Z,14.37
2022-11-14T02:17:30.483Z,12.50
2022-11-14T02:20:43.069Z,15.47
2022-11-14T02:23:47.483Z,15.40
2022-11-14T02:26:52.060Z,13.37
2022-11-14T02:30:12.099Z,13.33
2022-11-14T02:33:16.661Z,14.40
2022-11-14T02:36:21.340Z,15.23
2022-11-14T02:39:26.102Z,14.10
2022-11-14T02:42:30.184Z,15.67
2022-11-14T02:45:34.962Z,14.33
2022-11-14T02:48:39.151Z,12.53
2022-11-14T02:51:43.584Z,13.37
2022-11-14T02:54:53.187Z,14.03
2022-11-14T02:57:58.868Z,12.73
2022-11-14T03:04:27.473Z,13.23
2022-11-14T03:07:32.040Z,14.43
2022-11-14T03:10:36.339Z,12.83
2022-11-14T03:13:41.133Z,13.07
2022-11-14T03:16:45.672Z,12.83
2022-11-14T03:19:49.770Z,12.10
2022-11-14T03:22:54.098Z,14.20
2022-11-14T03:26:03.549Z,14.80
2022-11-14T03:29:08.624Z,14.37
2022-11-14T03:32:12.638Z,14.23
2022-11-14T03:35:17.196Z,15.00
2022-11-14T03:38:24.632Z,15.53
2022-11-14T03:41:28.823Z,14.27
2022-11-14T03:44:33.228Z,15.40
2022-11-14T03:47:37.521Z,16.10
2022-11-14T03:50:43.387Z,16.17
2022-11-14T03:53:48.148Z,14.20
2022-11-14T03:56:52.898Z,14.87
2022-11-14T03:59:57.244Z,15.20
2022-11-14T04:03:01.460Z,14.70
2022-11-14T04:06:06.179Z,15.07
2022-11-14T04:09:10.921Z,13.03
2022-11-14T04:12:16.070Z,14.87
2022-11-14T04:15:21.054Z,13.37
2022-11-14T04:18:25.980Z,15.60
2022-11-14T04:21:30.311Z,14.27
2022-11-14T04:24:34.928Z,12.97
2022-11-14T04:27:39.218Z,13.73
2022-11-14T04:30:45.250Z,14.57
2022-11-14T04:33:49.781Z,13.97
2022-11-14T04:36:53.820Z,12.40
2022-11-14T04:40:00.859Z,12.07
2022-11-14T04:43:05.697Z,14.77
2022-11-14T04:46:10.138Z,12.47
2022-11-14T04:49:14.699Z,12.47
2022-11-14T04:52:18.972Z,13.33
2022-11-14T04:55:23.249Z,16.63
2022-11-14T04:58:28.029Z,15.00
2022-11-14T05:01:32.775Z,14.77
2022-11-14T05:04:37.425Z,16.07
2022-11-14T05:07:42.027Z,15.47
2022-11-14T05:10:46.655Z,17.53
2022-11-14T05:13:50.733Z,11.37
2022-11-14T05:16:55.114Z,11.70
2022-11-14T05:19:59.607Z,8.93
2022-11-14T05:23:04.735Z,9.90
2022-11-14T05:26:11.997Z,7.20
2022-11-14T05:29:16.242Z,8.63
2022-11-14T05:32:20.786Z,10.37
2022-11-14T05:35:25.030Z,7.07
2022-11-14T05:38:29.951Z,10.37
2022-11-14T05:41:34.691Z,11.33
2022-11-14T05:44:39.154Z,13.43
2022-11-14T05:47:43.504Z,7.97
2022-11-14T05:50:47.787Z,8.93
2022-11-14T05:53:52.505Z,9.33
2022-11-14T05:56:56.978Z,6.53
2022-11-14T06:00:01.470Z,7.30
2022-11-14T06:03:05.542Z,7.30
2022-11-14T06:06:12.137Z,5.70
2022-11-14T06:09:16.256Z,8.20
2022-11-14T06:12:20.870Z,7.07
2022-11-14T06:15:25.234Z,10.43
2022-11-14T06:18:30.715Z,7.80
2022-11-14T06:21:34.990Z,7.83
2022-11-14T06:24:39.446Z,8.07
2022-11-14T06:27:44.001Z,6.67
2022-11-14T06:30:48.452Z,4.57
2022-11-14T06:33:53.172Z,6.53
2022-11-14T06:36:57.172Z,9.20
2022-11-14T06:40:01.432Z,5.47
2022-11-14T06:43:05.932Z,5.17
2022-11-14T06:46:13.197Z,10.30
2022-11-14T06:49:17.242Z,5.93
2022-11-14T06:52:22.246Z,7.60
2022-11-14T06:55:26.400Z,5.20
2022-11-14T06:58:33.528Z,8.90
2022-11-14T07:01:38.233Z,5.93
2022-11-14T07:04:42.688Z,6.17
2022-11-14T07:07:47.143Z,9.03
2022-11-14T07:10:51.743Z,5.90
2022-11-14T07:14:00.688Z,8.20
2022-11-14T07:17:04.748Z,6.47
2022-11-14T07:20:09.776Z,6.50
2022-11-14T07:23:18.562Z,5.03
2022-11-14T07:26:26.026Z,6.87
2022-11-14T07:29:30.094Z,7.77
2022-11-14T07:32:34.682Z,7.73
2022-11-14T07:35:42.271Z,10.60
2022-11-14T07:38:46.410Z,6.80
2022-11-14T07:41:50.872Z,7.80
2022-11-14T07:44:55.199Z,7.67
2022-11-14T07:48:01.405Z,6.77
2022-11-14T07:51:08.043Z,9.67
2022-11-14T07:54:13.238Z,8.02
2022-11-14T07:57:17.654Z,8.77
2022-11-14T08:00:22.178Z,9.23
2022-11-14T08:03:26.419Z,10.73
2022-11-14T08:06:30.723Z,7.77
2022-11-14T08:09:35.196Z,8.47
2022-11-14T08:12:40.903Z,5.38
2022-11-14T08:15:45.486Z,5.15
2022-11-14T08:18:49.951Z,4.97
2022-11-14T08:21:54.332Z,6.90
2022-11-14T08:24:58.813Z,4.57
2022-11-14T08:28:03.496Z,5.10
2022-11-14T08:31:07.743Z,10.77
2022-11-14T08:34:12.376Z,7.05
2022-11-14T08:37:17.049Z,13.15
2022-11-14T08:40:21.290Z,6.40
2022-11-14T08:43:26.011Z,7.28
2022-11-14T08:46:30.335Z,6.97
2022-11-14T08:49:34.835Z,7.65
2022-11-14T08:52:39.214Z,7.25
2022-11-14T08:55:48.138Z,7.63
2022-11-14T08:58:52.371Z,13.05
2022-11-14T09:01:56.836Z,10.00
2022-11-14T09:05:01.215Z,5.15
2022-11-14T09:08:05.871Z,7.47
2022-11-14T09:11:10.402Z,5.38
2022-11-14T09:14:15.331Z,9.80
2022-11-14T09:17:19.654Z,15.07
2022-11-14T09:20:31.538Z,8.98
2022-11-14T09:23:36.986Z,14.13
2022-11-14T09:26:40.915Z,7.90
2022-11-14T09:29:45.695Z,8.18
2022-11-14T09:32:50.794Z,14.60
2022-11-14T09:35:59.718Z,10.00
2022-11-14T09:39:04.035Z,7.43
2022-11-14T09:42:39.548Z,6.25
2022-11-14T09:45:50.089Z,8.70
2022-11-14T09:48:54.660Z,11.20
2022-11-14T09:52:21.927Z,10.32
2022-11-14T09:55:36.598Z,6.72
2022-11-14T09:58:42.890Z,4.97
2022-11-14T10:01:53.396Z,7.47
2022-11-14T10:05:48.838Z,7.93
2022-11-14T10:09:19.346Z,11.48
2022-11-14T10:12:33.487Z,7.25
2022-11-14T10:15:46.133Z,7.43
2022-11-14T10:18:50.618Z,8.90
2022-11-14T10:22:02.868Z,7.10
2022-11-14T10:25:25.232Z,9.00
2022-11-14T10:28:48.258Z,8.60
2022-11-14T10:32:20.224Z,9.95
2022-11-14T10:35:50.669Z,5.57
2022-11-14T10:39:05.875Z,9.00
2022-11-14T10:42:30.038Z,6.90
2022-11-14T10:45:47.116Z,7.45
2022-11-14T10:48:54.033Z,3.88
2022-11-14T10:52:14.307Z,8.75
2022-11-14T10:55:24.881Z,5.30
2022-11-14T10:58:49.057Z,5.78
2022-11-14T11:01:56.724Z,6.40
2022-11-14T11:05:16.113Z,5.85
2022-11-14T11:08:43.648Z,8.32
2022-11-14T11:12:01.779Z,3.33
2022-11-14T11:15:22.901Z,3.42
2022-11-14T11:18:28.803Z,6.35
2022-11-14T11:21:50.638Z,6.40
2022-11-14T11:24:55.108Z,6.47
2022-11-14T11:28:22.072Z,10.52
2022-11-14T11:31:26.117Z,12.32
2022-11-14T11:34:34.700Z,9.02
2022-11-14T11:37:42.130Z,11.60
2022-11-14T11:40:51.338Z,9.13
2022-11-14T11:44:00.677Z,5.03
2022-11-14T11:47:12.139Z,11.95
2022-11-14T11:50:20.522Z,7.00
2022-11-14T11:53:31.924Z,11.70
2022-11-14T11:56:38.879Z,10.77
2022-11-14T11:59:48.392Z,6.22
2022-11-14T12:02:54.037Z,9.20
2022-11-14T12:06:08.837Z,7.85
2022-11-14T12:09:48.700Z,8.70
2022-11-14T12:13:00.342Z,9.48
2022-11-14T12:16:39.850Z,8.52
2022-11-14T12:20:02.201Z,8.55
2022-11-14T12:23:18.384Z,9.60
2022-11-14T12:26:33.543Z,8.60
2022-11-14T12:29:53.906Z,7.28
2022-11-14T12:33:16.282Z,6.22
2022-11-14T12:36:32.188Z,10.27
2022-11-14T12:39:37.521Z,6.35
2022-11-14T12:42:47.850Z,6.70
2022-11-14T12:45:52.146Z,9.38
2022-11-14T12:48:56.701Z,10.00
2022-11-14T12:52:01.085Z,8.82
2022-11-14T12:55:25.492Z,5.85
2022-11-14T12:59:02.181Z,8.18
2022-11-14T13:02:51.660Z,5.65
2022-11-14T13:05:58.381Z,7.38
2022-11-14T13:09:27.017Z,5.50
2022-11-14T13:12:54.807Z,5.43
2022-11-14T13:16:20.193Z,6.18
2022-11-14T13:19:43.176Z,4.25
2022-11-14T13:22:47.659Z,9.10
2022-11-14T13:26:10.589Z,6.20
2022-11-14T13:29:40.056Z,4.47
2022-11-14T13:32:44.745Z,5.65
2022-11-14T13:35:53.031Z,7.85
2022-11-14T13:39:21.976Z,6.57
2022-11-14T13:42:41.210Z,6.90
2022-11-14T13:45:48.258Z,4.43
2022-11-14T13:49:20.102Z,5.35
2022-11-14T13:52:29.631Z,5.88
2022-11-14T13:55:52.107Z,5.43
2022-11-14T13:59:21.043Z,6.03
2022-11-14T14:02:31.615Z,3.58
2022-11-14T14:06:05.948Z,5.50
2022-11-14T14:09:20.173Z,3.25
2022-11-14T14:12:33.740Z,6.47
2022-11-14T14:16:07.627Z,4.70
2022-11-14T14:19:25.468Z,2.60
2022-11-14T14:22:37.603Z,4.13
2022-11-14T14:25:49.686Z,5.50
2022-11-14T14:29:15.521Z,3.75
2022-11-14T14:32:20.475Z,4.63
2022-11-14T14:35:28.332Z,6.18
2022-11-14T14:38:33.149Z,4.13
2022-11-14T14:41:38.099Z,3.63
2022-11-14T14:44:43.708Z,3.50
2022-11-14T14:47:51.379Z,4.20
2022-11-14T14:50:58.334Z,3.53
2022-11-14T14:54:02.616Z,4.38
2022-11-14T14:57:22.429Z,5.68
2022-11-14T15:00:28.654Z,4.43
2022-11-14T15:03:42.309Z,4.18
2022-11-14T15:06:48.236Z,5.18
2022-11-14T15:09:59.079Z,4.68
2022-11-14T15:13:03.875Z,6.47
2022-11-14T15:16:09.676Z,2.88
2022-11-14T15:19:16.755Z,4.97
2022-11-14T15:22:25.416Z,4.78
2022-11-14T15:25:30.810Z,4.20
2022-11-14T15:28:35.010Z,5.72
2022-11-14T15:31:44.274Z,7.32
2022-11-14T15:35:24.847Z,6.32
2022-11-14T15:38:43.617Z,3.35
2022-11-14T15:41:48.706Z,9.88
2022-11-14T15:44:53.296Z,6.80
2022-11-14T15:48:04.969Z,6.13
2022-11-14T15:51:09.295Z,8.02
2022-11-14T15:54:42.716Z,8.07
2022-11-14T15:57:52.032Z,3.35
2022-11-14T16:01:19.111Z,10.10
2022-11-14T16:04:33.601Z,7.28
2022-11-14T16:07:37.961Z,8.05
2022-11-14T16:10:42.455Z,10.35
2022-11-14T16:13:46.744Z,6.68
2022-11-14T16:16:51.022Z,9.00
2022-11-14T16:19:58.465Z,8.88
2022-11-14T16:23:03.372Z,8.65
2022-11-14T16:26:07.907Z,7.60
2022-11-14T16:29:12.707Z,10.77
2022-11-14T16:32:16.801Z,9.65
2022-11-14T16:35:22.443Z,9.05
2022-11-14T16:38:27.012Z,8.75
2022-11-14T16:41:31.226Z,14.05
2022-11-14T16:44:41.151Z,8.85
2022-11-14T16:47:48.290Z,8.32
2022-11-14T16:50:56.644Z,9.07
2022-11-14T16:54:01.241Z,9.35
2022-11-14T16:57:05.851Z,12.40
2022-11-14T17:00:12.657Z,6.90
2022-11-14T17:03:18.181Z,7.32
2022-11-14T17:06:22.578Z,7.97
2022-11-14T17:09:26.695Z,6.97
2022-11-14T17:12:32.234Z,6.82
2022-11-14T17:15:37.040Z,5.38
2022-11-14T17:18:41.558Z,6.07
2022-11-14T17:21:45.863Z,6.15
2022-11-14T17:24:50.166Z,4.78
2022-11-14T17:27:54.599Z,5.50
2022-11-14T17:30:59.131Z,7.70
2022-11-14T17:34:03.541Z,9.20
2022-11-14T17:37:08.060Z,9.85
2022-11-14T17:40:15.486Z,6.32
2022-11-14T17:43:20.147Z,6.22
2022-11-14T17:46:24.752Z,6.13
2022-11-14T17:49:29.092Z,5.43
2022-11-14T17:52:33.531Z,6.80
2022-11-14T17:55:38.515Z,3.85
2022-11-14T17:58:43.928Z,4.53
2022-11-14T18:01:48.447Z,3.08
2022-11-14T18:04:52.818Z,5.18
2022-11-14T18:07:57.324Z,5.10
2022-11-14T18:11:03.486Z,4.53
2022-11-14T18:14:07.678Z,4.72
2022-11-14T18:17:13.395Z,4.82
2022-11-14T18:20:18.021Z,5.57
2022-11-14T18:23:22.519Z,6.07
2022-11-14T18:26:28.823Z,5.20
2022-11-14T18:29:33.258Z,4.05
2022-11-14T18:32:37.776Z,5.43
2022-11-14T18:35:42.036Z,5.57
2022-11-14T18:38:46.919Z,5.38
2022-11-14T18:41:51.110Z,3.17
2022-11-14T18:44:55.696Z,5.05
2022-11-14T18:48:00.067Z,5.13
2022-11-14T18:51:06.945Z,3.88
2022-11-14T18:54:13.485Z,3.50
2022-11-14T18:57:17.510Z,3.58
2022-11-14T19:00:22.000Z,4.82
2022-11-14T19:03:26.413Z,3.10
2022-11-14T19:06:35.032Z,4.68
2022-11-14T19:09:39.456Z,3.78
2022-11-14T19:12:43.791Z,6.18
2022-11-14T19:15:48.142Z,4.20
2022-11-14T19:18:52.615Z,4.07
2022-11-14T19:21:57.022Z,6.80
2022-11-14T19:25:02.653Z,5.82
2022-11-14T19:28:06.928Z,6.13
2022-11-14T19:31:11.670Z,5.18
2022-11-14T19:34:15.872Z,4.63
2022-11-14T19:37:20.447Z,3.58
2022-11-14T19:40:26.045Z,6.25
2022-11-14T19:43:30.676Z,3.10
2022-11-14T19:46:36.779Z,4.40
2022-11-14T19:49:42.779Z,5.97
2022-11-14T19:52:47.165Z,2.42
2022-11-14T19:55:51.650Z,3.05
2022-11-14T19:58:56.733Z,3.50
2022-11-14T20:02:01.414Z,3.40
2022-11-14T20:05:06.747Z,3.38
2022-11-14T20:08:11.149Z,2.83
2022-11-14T20:11:16.004Z,3.83
2022-11-14T20:14:20.475Z,2.33
2022-11-14T20:17:25.225Z,3.58
2022-11-14T20:20:29.456Z,3.50
2022-11-14T20:23:35.009Z,3.50
2022-11-14T20:26:39.461Z,3.22
2022-11-14T20:29:43.773Z,6.50
2022-11-14T20:32:48.137Z,5.10
2022-11-14T20:35:52.563Z,2.97
2022-11-14T20:38:58.428Z,4.68
2022-11-14T20:42:03.010Z,4.00
2022-11-14T20:45:07.669Z,4.93
2022-11-14T20:48:12.075Z,3.38
2022-11-14T20:51:20.741Z,7.95
2022-11-14T20:54:26.936Z,2.88
2022-11-14T20:57:31.510Z,4.05
2022-11-14T21:00:35.828Z,8.68
2022-11-14T21:03:40.556Z,3.00
2022-11-14T21:06:45.436Z,2.97
2022-11-14T21:10:09.749Z,3.13
2022-11-14T21:13:38.969Z,3.95
2022-11-14T21:16:43.413Z,3.17
2022-11-14T21:19:47.881Z,4.38
2022-11-14T21:22:52.329Z,8.85
2022-11-14T21:26:10.365Z,4.40
2022-11-14T21:29:14.775Z,5.80
2022-11-14T21:32:19.036Z,5.70
2022-11-14T21:35:23.506Z,5.05
2022-11-14T21:38:27.836Z,5.90
2022-11-14T21:41:33.121Z,2.35
2022-11-14T21:44:37.279Z,3.33
2022-11-14T21:47:41.880Z,8.20
2022-11-14T21:50:46.160Z,5.63
2022-11-14T21:53:53.990Z,2.42
2022-11-14T21:56:58.389Z,3.88
2022-11-14T22:00:02.543Z,3.00
2022-11-14T22:03:29.703Z,3.70
2022-11-14T22:06:33.994Z,2.42
2022-11-14T22:09:44.001Z,3.90
2022-11-14T22:12:49.418Z,4.43
2022-11-14T22:15:53.792Z,6.05
2022-11-14T22:19:04.732Z,3.25
2022-11-14T22:22:09.639Z,4.55
2022-11-14T22:25:14.249Z,1.98
2022-11-14T22:28:18.519Z,3.42
2022-11-14T22:31:24.860Z,4.43
2022-11-14T22:34:29.019Z,2.58
2022-11-14T22:37:33.461Z,2.92
2022-11-14T22:40:38.300Z,3.92
2022-11-14T22:43:43.779Z,2.78
2022-11-14T22:46:48.075Z,2.10
2022-11-14T22:49:52.673Z,3.13
2022-11-14T22:52:56.798Z,4.43
2022-11-14T22:56:01.571Z,3.15
2022-11-14T22:59:06.150Z,1.38
2022-11-14T23:02:10.868Z,4.25
2022-11-14T23:05:15.441Z,3.92
2022-11-14T23:08:20.510Z,5.53
2022-11-14T23:11:28.771Z,4.70
2022-11-14T23:14:32.962Z,4.43
2022-11-14T23:17:37.195Z,4.47
2022-11-14T23:20:41.749Z,4.95
2022-11-14T23:23:46.571Z,4.55
2022-11-14T23:26:50.659Z,5.45
2022-11-14T23:29:54.852Z,4.47
2022-11-14T23:32:59.314Z,5.13
2022-11-14T23:36:04.221Z,4.80
2022-11-14T23:39:08.591Z,5.47
2022-11-14T23:42:13.090Z,4.13
2022-11-14T23:45:17.529Z,4.43
2022-11-14T23:48:22.643Z,5.43
2022-11-14T23:51:26.994Z,5.53
2022-11-14T23:54:31.517Z,6.13
2022-11-14T23:57:35.942Z,5.33
